Martin, Ohio
Current Conditions -  °F | °C
As of 7:53 PM on Saturday 22 Nov 2014 (Local Time) from KTDZ Reporting Station
Overcast Overcast  
Wind Chill: 44°   Ceiling: 3800
Heat Index: 48°   Visibility: 10mi
Dew Point: 39°   Wind: 9mph
Humidity: 71%   Direction: 210°SSW
Pressure: 29.99"   Gusts: NA
Location:  41.56°N, 83.34°W
Report Text: KTDZ 230053Z AUTO 21008KT 10SM BKN038 OVC090 09/04 A2999 RMK AO2 SLP159 T00890039 TSNO
Loading
Personal Weather Stations






























Interactive Weather Map New forecast layout! Learn more

10-Day Weather Forecast

Advertisements
Track Severe Weather on mobile